| time (UTC) | temp F | wind direction | speed MPH | gust MPH | rain 1hr in | rain 24hr in | rain mn in | humidity % | barometer mb |
| 20260903143422 | 49 | 287 | 0.0 | 0.0 | 0.00 | 0.00 | 0.00 | 84 | 1022.6 |
| 20260903142917 | 50 | 286 | 0.0 | 0.0 | 0.00 | 0.00 | 0.00 | 84 | 1022.4 |
| 20260903142413 | 50 | 285 | 0.0 | 0.0 | 0.00 | 0.00 | 0.00 | 83 | 1022.3 |
| 20260903141909 | 50 | 274 | 0.0 | 0.0 | 0.00 | 0.00 | 0.00 | 83 | 1022.1 |
| 20260903141404 | 50 | 258 | 0.0 | 0.0 | 0.00 | 0.00 | 0.00 | 83 | 1022.3 |
| 20260903140900 | 50 | 270 | 0.0 | 0.0 | 0.00 | 0.00 | 0.00 | 82 | 1022.1 |
| 20260903140355 | 50 | 282 | 0.0 | 0.0 | 0.00 | 0.00 | 0.00 | 82 | 1022.3 |
| 20260903135850 | 51 | 267 | 0.0 | 1.0 | 0.00 | 0.00 | 0.00 | 82 | 1022.3 |
| 20260903135346 | 51 | 284 | 0.0 | 0.0 | 0.00 | 0.00 | 0.00 | 82 | 1022.4 |
| 20260903134844 | 51 | 263 | 0.0 | 1.0 | 0.00 | 0.00 | 0.00 | 82 | 1022.2 |
| 20260903134340 | 51 | 268 | 0.0 | 0.0 | 0.00 | 0.00 | 0.00 | 82 | 1022.3 |
| 20260903133837 | 51 | 297 | 0.0 | 0.0 | 0.00 | 0.00 | 0.00 | 82 | 1022.3 |
| 20260903133334 | 51 | 236 | 1.0 | 1.0 | 0.00 | 0.00 | 0.00 | 82 | 1022.5 |
| 20260903132834 | 50 | 226 | 1.0 | 2.0 | 0.00 | 0.00 | 0.00 | 83 | 1022.5 |
| 20260903132330 | 50 | 274 | 0.0 | 0.0 | 0.00 | 0.00 | 0.00 | 83 | 1022.7 |
| 20260903131824 | 50 | 290 | 0.0 | 0.0 | 0.00 | 0.00 | 0.00 | 84 | 1022.4 |
| 20260903131324 | 50 | 288 | 0.0 | 0.0 | 0.00 | 0.00 | 0.00 | 84 | 1022.3 |
| 20260903130823 | 50 | 275 | 0.0 | 0.0 | 0.00 | 0.00 | 0.00 | 84 | 1022.4 |
| 20260903130318 | 50 | 233 | 1.0 | 1.0 | 0.00 | 0.00 | 0.00 | 85 | 1022.4 |
| 20260903125817 | 50 | 294 | 1.0 | 1.0 | 0.00 | 0.00 | 0.00 | 86 | 1022.4 |
| 20260903125312 | 49 | 264 | 0.0 | 1.0 | 0.00 | 0.00 | 0.00 | 87 | 1022.4 |
| 20260903124811 | 49 | 259 | 0.0 | 0.0 | 0.00 | 0.00 | 0.00 | 87 | 1022.4 |
| 20260903124307 | 49 | 291 | 0.0 | 0.0 | 0.00 | 0.00 | 0.00 | 87 | 1022.2 |
| 20260903123806 | 49 | 277 | 0.0 | 0.0 | 0.00 | 0.00 | 0.00 | 87 | 1022.1 |
| 20260903123306 | 48 | 243 | 1.0 | 1.0 | 0.00 | 0.00 | 0.00 | 88 | 1022.1 |
| 20260903122804 | 48 | 255 | 0.0 | 1.0 | 0.00 | 0.00 | 0.00 | 88 | 1022.2 |
| 20260903122259 | 48 | 245 | 1.0 | 1.0 | 0.00 | 0.00 | 0.00 | 88 | 1021.9 |
| 20260903121757 | 48 | 248 | 1.0 | 1.0 | 0.00 | 0.00 | 0.00 | 88 | 1022.1 |
| 20260903121253 | 48 | 242 | 1.0 | 1.0 | 0.00 | 0.00 | 0.00 | 88 | 1021.9 |
| 20260903120749 | 48 | 228 | 1.0 | 1.0 | 0.00 | 0.00 | 0.00 | 89 | 1021.8 |
| 20260903120242 | 48 | 289 | 0.0 | 0.0 | 0.00 | 0.00 | 0.00 | 89 | 1022.1 |
| 20260903115740 | 48 | 270 | 0.0 | 0.0 | 0.00 | 0.07 | 0.07 | 89 | 1022.0 |
| 20260903115236 | 48 | 267 | 0.0 | 0.0 | 0.00 | 0.07 | 0.07 | 88 | 1021.8 |
| 20260903114730 | 48 | 281 | 0.0 | 0.0 | 0.00 | 0.07 | 0.07 | 88 | 1021.8 |
| 20260903114226 | 48 | 293 | 0.0 | 0.0 | 0.00 | 0.07 | 0.07 | 87 | 1021.5 |
| 20260903113721 | 49 | 270 | 0.0 | 0.0 | 0.00 | 0.07 | 0.07 | 87 | 1021.5 |
| 20260903113217 | 49 | 267 | 0.0 | 0.0 | 0.00 | 0.07 | 0.07 | 87 | 1021.4 |
| 20260903112713 | 49 | 281 | 0.0 | 0.0 | 0.00 | 0.07 | 0.07 | 86 | 1021.4 |
| 20260903112209 | 50 | 280 | 0.0 | 0.0 | 0.00 | 0.07 | 0.07 | 85 | 1021.2 |
| 20260903111707 | 50 | 296 | 0.0 | 0.0 | 0.00 | 0.07 | 0.07 | 85 | 1021.5 |
| 20260903111203 | 50 | 276 | 0.0 | 0.0 | 0.00 | 0.07 | 0.07 | 84 | 1021.3 |
| 20260903110659 | 51 | 276 | 0.0 | 0.0 | 0.00 | 0.07 | 0.07 | 84 | 1021.4 |
| 20260903110154 | 51 | 258 | 0.0 | 0.0 | 0.00 | 0.07 | 0.07 | 84 | 1021.0 |
| 20260903105654 | 51 | 254 | 0.0 | 1.0 | 0.00 | 0.07 | 0.07 | 83 | 1021.1 |
| 20260903105149 | 51 | 274 | 0.0 | 0.0 | 0.00 | 0.07 | 0.07 | 83 | 1021.1 |
| 20260903104648 | 51 | 264 | 0.0 | 0.0 | 0.00 | 0.07 | 0.07 | 83 | 1021.1 |
| 20260903104144 | 52 | 249 | 1.0 | 1.0 | 0.00 | 0.07 | 0.07 | 83 | 1020.9 |
| 20260903103639 | 52 | 138 | 1.0 | 1.0 | 0.00 | 0.07 | 0.07 | 83 | 1021.0 |
| 20260903103136 | 52 | 274 | 0.0 | 0.0 | 0.00 | 0.07 | 0.07 | 83 | 1021.0 |
| 20260903102631 | 52 | 284 | 0.0 | 0.0 | 0.00 | 0.07 | 0.07 | 83 | 1020.8 |
| 20260903102129 | 52 | 129 | 0.0 | 0.0 | 0.00 | 0.07 | 0.07 | 84 | 1020.8 |
| 20260903101624 | 52 | 249 | 0.0 | 1.0 | 0.00 | 0.07 | 0.07 | 84 | 1020.8 |
| 20260903101119 | 52 | 275 | 0.0 | 0.0 | 0.00 | 0.07 | 0.07 | 85 | 1020.6 |
| 20260903100614 | 51 | 187 | 0.0 | 0.0 | 0.00 | 0.07 | 0.07 | 86 | 1020.5 |
| 20260903100113 | 51 | 242 | 1.0 | 1.0 | 0.00 | 0.07 | 0.07 | 86 | 1020.4 |
| 20260903095611 | 51 | 296 | 0.0 | 0.0 | 0.00 | 0.07 | 0.07 | 85 | 1020.3 |
| 20260903095111 | 51 | 246 | 0.0 | 0.0 | 0.00 | 0.07 | 0.07 | 85 | 1020.4 |
| 20260903094606 | 51 | 228 | 0.0 | 0.0 | 0.00 | 0.07 | 0.07 | 85 | 1019.9 |
| 20260903094101 | 51 | 212 | 1.0 | 1.0 | 0.00 | 0.07 | 0.07 | 85 | 1020.0 |
| 20260903093556 | 51 | 282 | 0.0 | 0.0 | 0.00 | 0.07 | 0.07 | 84 | 1019.9 |
| 20260903093052 | 51 | 267 | 1.0 | 1.0 | 0.00 | 0.07 | 0.07 | 84 | 1019.7 |
| 20260903092551 | 51 | 278 | 0.0 | 0.0 | 0.00 | 0.07 | 0.07 | 84 | 1019.7 |
| 20260903092046 | 51 | 284 | 0.0 | 0.0 | 0.00 | 0.07 | 0.07 | 83 | 1019.6 |
| 20260903091544 | 51 | 124 | 1.0 | 1.0 | 0.00 | 0.07 | 0.07 | 83 | 1019.5 |
| 20260903091039 | 52 | 277 | 0.0 | 1.0 | 0.00 | 0.07 | 0.07 | 82 | 1019.6 |
| 20260903090535 | 52 | 342 | 0.0 | 0.0 | 0.00 | 0.07 | 0.07 | 82 | 1019.6 |
| 20260903090033 | 52 | 199 | 2.0 | 3.0 | 0.00 | 0.07 | 0.07 | 82 | 1019.3 |
| 20260903085532 | 53 | 304 | 0.0 | 0.0 | 0.00 | 0.07 | 0.07 | 81 | 1019.3 |
| 20260903085028 | 53 | 190 | 2.0 | 3.0 | 0.00 | 0.07 | 0.07 | 81 | 1019.2 |
| 20260903084526 | 53 | 225 | 0.0 | 1.0 | 0.00 | 0.07 | 0.07 | 80 | 1019.2 |
| 20260903084021 | 53 | 234 | 1.0 | 1.0 | 0.00 | 0.07 | 0.07 | 80 | 1019.2 |
| 20260903083517 | 53 | 252 | 1.0 | 1.0 | 0.00 | 0.07 | 0.07 | 79 | 1019.4 |
| 20260903083016 | 54 | 190 | 2.0 | 3.0 | 0.00 | 0.07 | 0.07 | 79 | 1019.4 |
| 20260903082510 | 54 | 301 | 2.0 | 2.0 | 0.00 | 0.07 | 0.07 | 79 | 1019.2 |
| 20260903082006 | 54 | 221 | 1.0 | 1.0 | 0.00 | 0.07 | 0.07 | 78 | 1019.0 |
| 20260903081501 | 54 | 225 | 2.0 | 2.0 | 0.00 | 0.07 | 0.07 | 78 | 1019.0 |
| 20260903080957 | 54 | 242 | 1.0 | 1.0 | 0.00 | 0.07 | 0.07 | 78 | 1019.0 |
| 20260903080453 | 55 | 200 | 0.0 | 1.0 | 0.00 | 0.07 | 0.07 | 77 | 1018.7 |
| 20260903075949 | 55 | 197 | 1.0 | 1.0 | 0.00 | 0.07 | 0.07 | 77 | 1018.6 |
| 20260903075444 | 55 | 221 | 2.0 | 2.0 | 0.00 | 0.07 | 0.07 | 77 | 1018.4 |
| 20260903074939 | 55 | 267 | 3.0 | 3.0 | 0.00 | 0.07 | 0.07 | 76 | 1018.7 |
| 20260903074438 | 56 | 163 | 1.0 | 1.0 | 0.00 | 0.07 | 0.07 | 75 | 1018.4 |
| 20260903073934 | 56 | 208 | 3.0 | 5.0 | 0.00 | 0.07 | 0.07 | 75 | 1018.6 |
| 20260903073428 | 56 | 22 | 1.0 | 1.0 | 0.00 | 0.07 | 0.07 | 74 | 1018.6 |
| 20260903072924 | 57 | 206 | 1.0 | 1.0 | 0.00 | 0.07 | 0.07 | 73 | 1018.4 |
| 20260903072420 | 57 | 192 | 3.0 | 3.0 | 0.00 | 0.07 | 0.07 | 73 | 1018.3 |
| 20260903071917 | 57 | 216 | 1.0 | 1.0 | 0.00 | 0.07 | 0.07 | 72 | 1018.2 |
| 20260903071413 | 58 | 193 | 1.0 | 2.0 | 0.00 | 0.07 | 0.07 | 71 | 1018.0 |
| 20260903070909 | 58 | 222 | 2.0 | 2.0 | 0.00 | 0.07 | 0.07 | 71 | 1017.9 |
| 20260903070403 | 59 | 201 | 2.0 | 2.0 | 0.00 | 0.07 | 0.07 | 70 | 1018.1 |
| 20260903065858 | 59 | 238 | 3.0 | 3.0 | 0.00 | 0.07 | 0.07 | 69 | 1017.6 |
| 20260903065357 | 59 | 221 | 3.0 | 3.0 | 0.00 | 0.07 | 0.07 | 68 | 1017.8 |
| 20260903064856 | 59 | 233 | 1.0 | 1.0 | 0.00 | 0.07 | 0.07 | 69 | 1017.7 |
| 20260903064352 | 60 | 178 | 3.0 | 5.0 | 0.00 | 0.07 | 0.07 | 68 | 1017.7 |
| 20260903063848 | 60 | 53 | 3.0 | 5.0 | 0.00 | 0.07 | 0.07 | 67 | 1017.8 |
| 20260903063343 | 60 | 245 | 3.0 | 3.0 | 0.00 | 0.07 | 0.07 | 66 | 1017.7 |
| 20260903062838 | 60 | 114 | 1.0 | 1.0 | 0.00 | 0.07 | 0.07 | 68 | 1017.5 |
| 20260903062338 | 60 | 178 | 2.0 | 3.0 | 0.00 | 0.07 | 0.07 | 68 | 1017.4 |
| 20260903061835 | 60 | 168 | 2.0 | 3.0 | 0.00 | 0.07 | 0.07 | 66 | 1017.6 |
| 20260903061333 | 60 | 238 | 1.0 | 2.0 | 0.00 | 0.07 | 0.07 | 67 | 1017.2 |
| 20260903060830 | 61 | 218 | 4.0 | 5.0 | 0.00 | 0.07 | 0.07 | 66 | 1017.1 |
| 20260903060329 | 61 | 199 | 4.0 | 5.0 | 0.00 | 0.07 | 0.07 | 65 | 1017.2 |
| 20260903055827 | 61 | 242 | 3.0 | 6.0 | 0.00 | 0.07 | 0.07 | 65 | 1017.1 |
| 20260903055325 | 62 | 327 | 3.0 | 3.0 | 0.00 | 0.07 | 0.07 | 64 | 1017.1 |
| 20260903054821 | 62 | 220 | 3.0 | 5.0 | 0.00 | 0.07 | 0.07 | 63 | 1017.1 |
| 20260903054320 | 62 | 272 | 4.0 | 7.0 | 0.00 | 0.07 | 0.07 | 63 | 1017.0 |
| 20260903053817 | 62 | 198 | 4.0 | 6.0 | 0.00 | 0.07 | 0.07 | 63 | 1016.8 |
| 20260903053312 | 63 | 241 | 3.0 | 3.0 | 0.00 | 0.07 | 0.07 | 63 | 1016.8 |
| 20260903052808 | 63 | 271 | 2.0 | 2.0 | 0.00 | 0.07 | 0.07 | 64 | 1017.1 |
| 20260903052306 | 63 | 257 | 5.0 | 8.0 | 0.00 | 0.07 | 0.07 | 62 | 1017.1 |
| 20260903051759 | 63 | 227 | 1.0 | 2.0 | 0.00 | 0.07 | 0.07 | 63 | 1016.7 |
| 20260903051254 | 63 | 287 | 3.0 | 5.0 | 0.00 | 0.07 | 0.07 | 62 | 1017.1 |
| 20260903050749 | 63 | 234 | 4.0 | 6.0 | 0.00 | 0.07 | 0.07 | 61 | 1017.0 |
| 20260903050248 | 64 | 226 | 4.0 | 5.0 | 0.00 | 0.07 | 0.07 | 60 | 1017.0 |
| 20260903045743 | 64 | 194 | 5.0 | 6.0 | 0.00 | 0.07 | 0.07 | 60 | 1017.0 |
| 20260903045239 | 64 | 230 | 3.0 | 3.0 | 0.00 | 0.07 | 0.07 | 61 | 1016.8 |
| 20260903044735 | 64 | 297 | 2.0 | 6.0 | 0.00 | 0.07 | 0.07 | 61 | 1016.6 |
| 20260903044230 | 64 | 222 | 2.0 | 3.0 | 0.00 | 0.07 | 0.07 | 62 | 1017.1 |
| 20260903043727 | 64 | 219 | 6.0 | 7.0 | 0.00 | 0.07 | 0.07 | 61 | 1017.0 |
| 20260903043227 | 64 | 249 | 3.0 | 5.0 | 0.00 | 0.07 | 0.07 | 61 | 1016.6 |
| 20260903042726 | 65 | 190 | 3.0 | 5.0 | 0.00 | 0.07 | 0.07 | 62 | 1016.4 |
| 20260903042221 | 65 | 218 | 4.0 | 5.0 | 0.00 | 0.07 | 0.07 | 62 | 1016.7 |
| 20260903041717 | 65 | 240 | 3.0 | 3.0 | 0.00 | 0.07 | 0.07 | 61 | 1016.3 |
| 20260903041213 | 64 | 171 | 5.0 | 5.0 | 0.00 | 0.07 | 0.07 | 62 | 1016.6 |
| 20260903040713 | 64 | 181 | 6.0 | 10.0 | 0.00 | 0.07 | 0.07 | 62 | 1016.3 |
| 20260903040208 | 65 | 208 | 5.0 | 6.0 | 0.00 | 0.07 | 0.07 | 61 | 1016.4 |
| 20260903035704 | 65 | 207 | 5.0 | 6.0 | 0.00 | 0.07 | 0.07 | 60 | 1016.6 |
| 20260903035200 | 64 | 215 | 3.0 | 5.0 | 0.00 | 0.07 | 0.07 | 62 | 1016.8 |
| 20260903034659 | 65 | 186 | 3.0 | 3.0 | 0.00 | 0.07 | 0.07 | 61 | 1016.6 |
| 20260903034154 | 64 | 207 | 0.0 | 1.0 | 0.00 | 0.07 | 0.07 | 64 | 1016.4 |
| 20260903033650 | 63 | 196 | 5.0 | 7.0 | 0.00 | 0.07 | 0.07 | 65 | 1016.6 |
| 20260903033149 | 62 | 293 | 2.0 | 3.0 | 0.00 | 0.07 | 0.07 | 65 | 1016.6 |
| 20260903032645 | 63 | 227 | 3.0 | 5.0 | 0.00 | 0.07 | 0.07 | 65 | 1016.6 |
| 20260903032140 | 64 | 234 | 4.0 | 5.0 | 0.00 | 0.07 | 0.07 | 63 | 1016.6 |
| 20260903031636 | 65 | 243 | 2.0 | 2.0 | 0.00 | 0.07 | 0.07 | 62 | 1016.7 |
| 20260903031130 | 66 | 222 | 5.0 | 7.0 | 0.00 | 0.07 | 0.07 | 60 | 1016.6 |
| 20260903030626 | 64 | 203 | 2.0 | 3.0 | 0.00 | 0.07 | 0.07 | 63 | 1016.6 |
| 20260903030122 | 65 | 74 | 5.0 | 7.0 | 0.00 | 0.07 | 0.07 | 60 | 1016.5 |
| 20260903025616 | 64 | 247 | 4.0 | 7.0 | 0.00 | 0.07 | 0.07 | 62 | 1016.6 |
| 20260903025112 | 64 | 257 | 5.0 | 6.0 | 0.00 | 0.07 | 0.07 | 64 | 1016.8 |
| 20260903024607 | 66 | 237 | 4.0 | 6.0 | 0.00 | 0.07 | 0.07 | 63 | 1016.8 |
| 20260903024101 | 66 | 196 | 4.0 | 5.0 | 0.00 | 0.07 | 0.07 | 62 | 1016.7 |
| 20260903023557 | 65 | 199 | 4.0 | 6.0 | 0.00 | 0.07 | 0.07 | 64 | 1016.6 |
| 20260903023052 | 64 | 195 | 4.0 | 5.0 | 0.00 | 0.07 | 0.07 | 65 | 1016.6 |
| 20260903022551 | 64 | 219 | 2.0 | 2.0 | 0.00 | 0.07 | 0.07 | 65 | 1016.5 |
| 20260903022050 | 63 | 248 | 3.0 | 6.0 | 0.00 | 0.07 | 0.07 | 67 | 1016.5 |
| 20260903021545 | 63 | 236 | 7.0 | 9.0 | 0.00 | 0.07 | 0.07 | 67 | 1016.7 |
| 20260903021039 | 64 | 194 | 5.0 | 7.0 | 0.00 | 0.07 | 0.07 | 66 | 1016.6 |
| 20260903020536 | 63 | 189 | 3.0 | 3.0 | 0.00 | 0.07 | 0.07 | 67 | 1016.4 |
| 20260903020035 | 62 | 234 | 3.0 | 3.0 | 0.00 | 0.07 | 0.07 | 72 | 1016.5 |
| 20260903015531 | 63 | 234 | 2.0 | 2.0 | 0.00 | 0.07 | 0.07 | 72 | 1016.5 |
| 20260903015026 | 64 | 264 | 3.0 | 5.0 | 0.00 | 0.07 | 0.07 | 67 | 1016.3 |
| 20260903014525 | 64 | 142 | 5.0 | 6.0 | 0.00 | 0.07 | 0.07 | 66 | 1016.4 |
| 20260903014020 | 63 | 207 | 4.0 | 5.0 | 0.00 | 0.07 | 0.07 | 69 | 1016.5 |
| 20260903013519 | 64 | 207 | 4.0 | 6.0 | 0.00 | 0.07 | 0.07 | 67 | 1016.6 |
| 20260903013014 | 64 | 188 | 6.0 | 7.0 | 0.00 | 0.07 | 0.07 | 67 | 1016.4 |
| 20260903012514 | 64 | 242 | 3.0 | 3.0 | 0.00 | 0.07 | 0.07 | 68 | 1016.5 |
| 20260903012013 | 64 | 171 | 4.0 | 5.0 | 0.00 | 0.07 | 0.07 | 68 | 1016.2 |
| 20260903011507 | 64 | 237 | 6.0 | 9.0 | 0.00 | 0.07 | 0.07 | 68 | 1016.1 |
| 20260903011002 | 64 | 235 | 3.0 | 5.0 | 0.00 | 0.07 | 0.07 | 69 | 1016.3 |
| 20260903010457 | 64 | 210 | 3.0 | 6.0 | 0.00 | 0.07 | 0.07 | 70 | 1016.2 |
| 20260903005955 | 64 | 201 | 2.0 | 2.0 | 0.00 | 0.07 | 0.07 | 70 | 1016.4 |
| 20260903005450 | 64 | 181 | 3.0 | 5.0 | 0.00 | 0.07 | 0.07 | 71 | 1016.3 |
| 20260903004946 | 63 | 259 | 5.0 | 6.0 | 0.00 | 0.07 | 0.07 | 73 | 1016.1 |
| 20260903004441 | 62 | 182 | 2.0 | 3.0 | 0.00 | 0.07 | 0.07 | 76 | 1016.3 |
| 20260903003937 | 61 | 291 | 4.0 | 6.0 | 0.00 | 0.07 | 0.07 | 77 | 1016.1 |
| 20260903003437 | 62 | 242 | 5.0 | 7.0 | 0.00 | 0.07 | 0.07 | 74 | 1016.2 |
| 20260903002932 | 64 | 186 | 2.0 | 2.0 | 0.00 | 0.07 | 0.07 | 71 | 1016.2 |
| 20260903002427 | 63 | 29 | 3.0 | 3.0 | 0.00 | 0.07 | 0.07 | 73 | 1016.2 |
| 20260903001927 | 62 | 203 | 5.0 | 7.0 | 0.00 | 0.07 | 0.07 | 74 | 1016.3 |
| 20260903001426 | 64 | 221 | 6.0 | 9.0 | 0.00 | 0.07 | 0.07 | 71 | 1016.1 |
| 20260903000926 | 63 | 207 | 3.0 | 5.0 | 0.00 | 0.07 | 0.07 | 72 | 1016.1 |
| 20260903000421 | 64 | 183 | 5.0 | 7.0 | 0.00 | 0.07 | 0.07 | 71 | 1016.1 |
| 20260902235920 | 62 | 270 | 4.0 | 6.0 | 0.00 | 0.07 | 0.07 | 73 | 1016.1 |
| 20260902235415 | 65 | 230 | 5.0 | 6.0 | 0.00 | 0.07 | 0.07 | 69 | 1015.8 |
| 20260902234915 | 66 | 262 | 4.0 | 6.0 | 0.00 | 0.07 | 0.07 | 66 | 1015.6 |
| 20260902234410 | 66 | 179 | 3.0 | 5.0 | 0.00 | 0.07 | 0.07 | 67 | 1015.5 |
| 20260902233909 | 66 | 224 | 6.0 | 8.0 | 0.00 | 0.07 | 0.07 | 66 | 1015.3 |
| 20260902233403 | 66 | 260 | 5.0 | 7.0 | 0.00 | 0.07 | 0.07 | 64 | 1015.0 |
| 20260902232902 | 67 | 245 | 6.0 | 7.0 | 0.00 | 0.07 | 0.07 | 61 | 1015.0 |
| 20260902232357 | 66 | 195 | 4.0 | 7.0 | 0.00 | 0.07 | 0.07 | 59 | 1014.9 |
| 20260902231856 | 66 | 148 | 4.0 | 6.0 | 0.00 | 0.07 | 0.07 | 61 | 1014.8 |
| 20260902231352 | 67 | 277 | 2.0 | 3.0 | 0.00 | 0.07 | 0.07 | 61 | 1014.5 |
| 20260902230846 | 66 | 231 | 2.0 | 2.0 | 0.00 | 0.07 | 0.07 | 63 | 1014.7 |
| 20260902230346 | 66 | 213 | 3.0 | 6.0 | 0.00 | 0.07 | 0.07 | 63 | 1014.5 |
| 20260902225840 | 66 | 205 | 2.0 | 3.0 | 0.00 | 0.07 | 0.07 | 63 | 1014.5 |
| 20260902225335 | 66 | 216 | 2.0 | 5.0 | 0.00 | 0.07 | 0.07 | 63 | 1014.6 |
| 20260902224833 | 65 | 248 | 3.0 | 3.0 | 0.00 | 0.07 | 0.07 | 65 | 1014.6 |
| 20260902224328 | 65 | 229 | 2.0 | 2.0 | 0.00 | 0.07 | 0.07 | 67 | 1014.6 |
| 20260902223825 | 64 | 200 | 1.0 | 2.0 | 0.00 | 0.07 | 0.07 | 67 | 1014.6 |
| 20260902223320 | 64 | 227 | 4.0 | 6.0 | 0.00 | 0.07 | 0.07 | 67 | 1014.6 |
| 20260902222819 | 64 | 149 | 2.0 | 2.0 | 0.00 | 0.07 | 0.07 | 68 | 1014.2 |
| 20260902222318 | 64 | 237 | 2.0 | 3.0 | 0.00 | 0.07 | 0.07 | 67 | 1014.3 |
| 20260902221813 | 63 | 163 | 2.0 | 5.0 | 0.00 | 0.07 | 0.07 | 68 | 1014.4 |
| 20260902221312 | 63 | 51 | 3.0 | 3.0 | 0.00 | 0.07 | 0.07 | 69 | 1014.4 |
| 20260902220808 | 63 | 185 | 1.0 | 1.0 | 0.00 | 0.07 | 0.07 | 70 | 1014.3 |
| 20260902220307 | 62 | 199 | 1.0 | 1.0 | 0.00 | 0.07 | 0.07 | 71 | 1014.1 |
| 20260902215803 | 61 | 163 | 2.0 | 2.0 | 0.00 | 0.07 | 0.07 | 73 | 1013.9 |
| 20260902215258 | 60 | 122 | 1.0 | 2.0 | 0.00 | 0.07 | 0.07 | 78 | 1013.9 |
| 20260902214754 | 58 | 95 | 3.0 | 5.0 | 0.00 | 0.07 | 0.07 | 83 | 1013.9 |
| 20260902214253 | 56 | 228 | 3.0 | 5.0 | 0.00 | 0.07 | 0.07 | 89 | 1013.6 |
| 20260902213748 | 54 | 83 | 1.0 | 2.0 | 0.00 | 0.07 | 0.07 | 97 | 1013.9 |
| 20260902213249 | 53 | 229 | 3.0 | 5.0 | 0.00 | 0.07 | 0.07 | 99 | 1013.6 |
| 20260902212747 | 52 | 164 | 2.0 | 2.0 | 0.00 | 0.07 | 0.07 | 99 | 1013.6 |
| 20260902212244 | 52 | 259 | 0.0 | 1.0 | 0.00 | 0.07 | 0.07 | 99 | 1013.5 |
| 20260902211740 | 52 | 209 | 0.0 | 0.0 | 0.00 | 0.07 | 0.07 | 99 | 1013.7 |
| 20260902211236 | 52 | 218 | 0.0 | 1.0 | 0.00 | 0.07 | 0.07 | 99 | 1013.5 |
| 20260902210736 | 52 | 194 | 1.0 | 1.0 | 0.00 | 0.07 | 0.07 | 99 | 1013.2 |
| 20260902210231 | 52 | 249 | 1.0 | 1.0 | 0.00 | 0.07 | 0.07 | 99 | 1013.2 |
| 20260902205729 | 52 | 112 | 0.0 | 1.0 | 0.00 | 0.07 | 0.07 | 99 | 1012.9 |
| 20260902205224 | 51 | 298 | 0.0 | 1.0 | 0.00 | 0.07 | 0.07 | 99 | 1013.1 |
| 20260902204719 | 51 | 127 | 0.0 | 1.0 | 0.00 | 0.07 | 0.07 | 99 | 1012.8 |
| 20260902204215 | 51 | 207 | 1.0 | 1.0 | 0.00 | 0.07 | 0.07 | 99 | 1012.8 |
| 20260902203709 | 51 | 293 | 2.0 | 3.0 | 0.00 | 0.07 | 0.07 | 99 | 1013.0 |
| 20260902203204 | 51 | 250 | 1.0 | 1.0 | 0.00 | 0.07 | 0.07 | 99 | 1012.8 |
| 20260902202659 | 51 | 270 | 0.0 | 1.0 | 0.00 | 0.07 | 0.07 | 99 | 1013.0 |
| 20260902202155 | 51 | 304 | 0.0 | 1.0 | 0.00 | 0.07 | 0.07 | 99 | 1012.8 |
| 20260902201652 | 50 | 299 | 0.0 | 0.0 | 0.00 | 0.07 | 0.07 | 99 | 1012.8 |
| 20260902201150 | 50 | 287 | 0.0 | 0.0 | 0.00 | 0.07 | 0.07 | 99 | 1012.5 |
| 20260902200645 | 51 | 291 | 0.0 | 0.0 | 0.00 | 0.07 | 0.07 | 99 | 1012.7 |
| 20260902200141 | 51 | 297 | 0.0 | 0.0 | 0.00 | 0.07 | 0.07 | 99 | 1012.5 |
| 20260902195637 | 51 | 267 | 0.0 | 0.0 | 0.00 | 0.07 | 0.07 | 99 | 1012.1 |
| 20260902195136 | 51 | 291 | 0.0 | 0.0 | 0.00 | 0.07 | 0.07 | 99 | 1012.4 |
| 20260902194635 | 51 | 251 | 0.0 | 0.0 | 0.00 | 0.07 | 0.07 | 99 | 1012.5 |
| 20260902194130 | 51 | 288 | 0.0 | 0.0 | 0.00 | 0.07 | 0.07 | 99 | 1012.6 |
| 20260902193626 | 51 | 308 | 0.0 | 0.0 | 0.00 | 0.07 | 0.07 | 99 | 1012.6 |
| 20260902193121 | 51 | 355 | 0.0 | 1.0 | 0.00 | 0.07 | 0.07 | 99 | 1012.5 |
| 20260902192619 | 52 | 87 | 0.0 | 1.0 | 0.00 | 0.07 | 0.07 | 99 | 1012.4 |
| 20260902192118 | 52 | 350 | 2.0 | 2.0 | 0.00 | 0.07 | 0.07 | 99 | 1012.5 |
| 20260902191614 | 52 | 339 | 1.0 | 1.0 | 0.00 | 0.07 | 0.07 | 99 | 1012.5 |
| 20260902191108 | 52 | 13 | 1.0 | 1.0 | 0.00 | 0.07 | 0.07 | 99 | 1012.1 |
| 20260902190604 | 52 | 308 | 0.0 | 0.0 | 0.00 | 0.07 | 0.07 | 99 | 1012.5 |
| 20260902190059 | 52 | 357 | 1.0 | 1.0 | 0.05 | 0.07 | 0.07 | 99 | 1012.3 |
| 20260902185554 | 52 | 328 | 1.0 | 2.0 | 0.12 | 0.07 | 0.07 | 99 | 1012.4 |
| 20260902185050 | 52 | 329 | 0.0 | 1.0 | 0.07 | 0.06 | 0.06 | 99 | 1012.7 |
| 20260902184545 | 52 | 296 | 0.0 | 0.0 | 0.00 | 0.05 | 0.05 | 99 | 1012.7 |
| 20260902184040 | 52 | 253 | 0.0 | 0.0 | 0.00 | 0.05 | 0.05 | 99 | 1012.7 |
| 20260902183536 | 52 | 304 | 0.0 | 0.0 | 0.00 | 0.05 | 0.05 | 99 | 1012.3 |
| 20260902183033 | 52 | 354 | 2.0 | 2.0 | 0.00 | 0.05 | 0.05 | 99 | 1012.4 |
| 20260902182528 | 52 | 13 | 1.0 | 1.0 | 0.00 | 0.05 | 0.05 | 99 | 1012.1 |
| 20260902182025 | 53 | 322 | 1.0 | 2.0 | 0.00 | 0.05 | 0.05 | 99 | 1012.6 |
| 20260902181521 | 53 | 328 | 0.0 | 1.0 | 0.00 | 0.05 | 0.05 | 99 | 1012.9 |
| 20260902181015 | 53 | 308 | 0.0 | 0.0 | 0.00 | 0.05 | 0.05 | 99 | 1013.0 |
| 20260902180514 | 53 | 298 | 0.0 | 0.0 | 0.00 | 0.05 | 0.05 | 98 | 1013.1 |
| 20260902180011 | 53 | 311 | 0.0 | 0.0 | 0.00 | 0.05 | 0.05 | 98 | 1013.3 |
| 20260902175510 | 53 | 339 | 0.0 | 1.0 | 0.00 | 0.05 | 0.05 | 97 | 1012.8 |
| 20260902175007 | 54 | 325 | 0.0 | 1.0 | 0.05 | 0.05 | 0.05 | 96 | 1012.6 |
| 20260902174503 | 54 | 337 | 0.0 | 1.0 | 0.00 | 0.04 | 0.04 | 95 | 1013.1 |
| 20260902173958 | 55 | 315 | 0.0 | 0.0 | 0.07 | 0.04 | 0.04 | 93 | 1013.6 |
| 20260902173457 | 55 | 233 | 1.0 | 2.0 | 0.12 | 0.04 | 0.04 | 91 | 1014.7 |
| 20260902172953 | 55 | 200 | 1.0 | 2.0 | 0.12 | 0.03 | 0.03 | 90 | 1014.7 |
| 20260902172452 | 56 | 183 | 2.0 | 2.0 | 0.14 | 0.02 | 0.02 | 87 | 1014.7 |
| 20260902171947 | 57 | 234 | 3.0 | 3.0 | 0.00 | 0.00 | 0.00 | 85 | 1014.4 |
| 20260902171443 | 57 | 207 | 2.0 | 2.0 | 0.00 | 0.00 | 0.00 | 83 | 1014.4 |
| 20260902170938 | 57 | 194 | 2.0 | 2.0 | 0.00 | 0.00 | 0.00 | 82 | 1013.4 |
| 20260902170433 | 57 | 202 | 2.0 | 2.0 | 0.00 | 0.00 | 0.00 | 82 | 1013.2 |
| 20260902165929 | 57 | 228 | 1.0 | 1.0 | 0.00 | 0.00 | 0.00 | 82 | 1013.0 |
| 20260902165429 | 56 | 212 | 2.0 | 2.0 | 0.00 | 0.00 | 0.00 | 83 | 1012.9 |
| 20260902164929 | 55 | 277 | 0.0 | 0.0 | 0.00 | 0.00 | 0.00 | 84 | 1012.8 |
| 20260902164424 | 55 | 274 | 0.0 | 0.0 | 0.00 | 0.00 | 0.00 | 84 | 1012.7 |
| 20260902163923 | 56 | 286 | 0.0 | 0.0 | 0.00 | 0.00 | 0.00 | 84 | 1013.0 |
| 20260902163419 | 56 | 282 | 0.0 | 0.0 | 0.00 | 0.00 | 0.00 | 83 | 1013.0 |
| 20260902162916 | 56 | 282 | 0.0 | 0.0 | 0.00 | 0.00 | 0.00 | 82 | 1013.1 |
| 20260902162412 | 56 | 302 | 0.0 | 0.0 | 0.00 | 0.00 | 0.00 | 82 | 1013.3 |
| 20260902161912 | 57 | 285 | 0.0 | 0.0 | 0.00 | 0.00 | 0.00 | 82 | 1013.6 |
| 20260902161407 | 57 | 292 | 0.0 | 0.0 | 0.00 | 0.00 | 0.00 | 81 | 1013.9 |
| 20260902160903 | 57 | 319 | 0.0 | 1.0 | 0.00 | 0.00 | 0.00 | 81 | 1013.7 |
| 20260902160358 | 57 | 358 | 2.0 | 2.0 | 0.00 | 0.00 | 0.00 | 82 | 1014.0 |
| 20260902155856 | 57 | 311 | 0.0 | 0.0 | 0.00 | 0.00 | 0.00 | 82 | 1014.1 |
| 20260902155356 | 56 | 306 | 1.0 | 1.0 | 0.00 | 0.00 | 0.00 | 83 | 1014.3 |
| 20260902154850 | 56 | 342 | 0.0 | 1.0 | 0.00 | 0.00 | 0.00 | 85 | 1014.4 |
| 20260902154346 | 56 | 307 | 0.0 | 0.0 | 0.00 | 0.00 | 0.00 | 85 | 1014.3 |
| 20260902153845 | 56 | 306 | 0.0 | 0.0 | 0.00 | 0.00 | 0.00 | 84 | 1014.6 |
| 20260902153344 | 56 | 297 | 0.0 | 0.0 | 0.00 | 0.00 | 0.00 | 84 | 1014.8 |
| 20260902152840 | 57 | 290 | 0.0 | 0.0 | 0.00 | 0.00 | 0.00 | 84 | 1014.6 |
| 20260902152336 | 57 | 303 | 1.0 | 1.0 | 0.00 | 0.00 | 0.00 | 84 | 1014.8 |
| 20260902151831 | 57 | 301 | 0.0 | 0.0 | 0.00 | 0.00 | 0.00 | 83 | 1015.1 |
| 20260902151326 | 57 | 289 | 0.0 | 0.0 | 0.00 | 0.00 | 0.00 | 83 | 1014.9 |
| 20260902150821 | 57 | 328 | 4.0 | 5.0 | 0.00 | 0.00 | 0.00 | 83 | 1015.1 |
| 20260902150318 | 57 | 4 | 1.0 | 1.0 | 0.00 | 0.00 | 0.00 | 83 | 1015.2 |
| 20260902145817 | 57 | 358 | 1.0 | 1.0 | 0.00 | 0.00 | 0.00 | 84 | 1015.2 |
| 20260902145312 | 57 | 329 | 0.0 | 0.0 | 0.00 | 0.00 | 0.00 | 84 | 1015.2 |
| 20260902144808 | 57 | 340 | 0.0 | 1.0 | 0.00 | 0.00 | 0.00 | 84 | 1015.5 |
| 20260902144303 | 57 | 342 | 1.0 | 2.0 | 0.00 | 0.00 | 0.00 | 83 | 1015.5 |
| 20260902143758 | 58 | 16 | 1.0 | 2.0 | 0.00 | 0.00 | 0.00 | 83 | 1015.3 |